sensor_id;sensor_type;location;lat;lon;timestamp;temperature;humidity
51175;DHT22;37240;50.104;20.010;2023-03-01T00:03:46;2.30;97.20
51175;DHT22;37240;50.104;20.010;2023-03-01T00:08:47;2.20;97.20
51175;DHT22;37240;50.104;20.010;2023-03-01T00:13:49;2.30;97.40
51175;DHT22;37240;50.104;20.010;2023-03-01T00:18:51;2.20;97.50
51175;DHT22;37240;50.104;20.010;2023-03-01T00:23:52;2.30;97.40
51175;DHT22;37240;50.104;20.010;2023-03-01T00:28:52;2.30;97.30
51175;DHT22;37240;50.104;20.010;2023-03-01T00:33:55;2.30;97.50
51175;DHT22;37240;50.104;20.010;2023-03-01T00:38:56;2.30;97.50
51175;DHT22;37240;50.104;20.010;2023-03-01T00:43:57;2.30;97.70
51175;DHT22;37240;50.104;20.010;2023-03-01T00:48:57;2.30;97.60
51175;DHT22;37240;50.104;20.010;2023-03-01T00:54:00;2.30;97.40
51175;DHT22;37240;50.104;20.010;2023-03-01T00:59:01;2.20;97.50
51175;DHT22;37240;50.104;20.010;2023-03-01T01:04:06;2.30;97.50
51175;DHT22;37240;50.104;20.010;2023-03-01T01:09:08;2.20;97.70
51175;DHT22;37240;50.104;20.010;2023-03-01T01:14:08;2.20;97.70
51175;DHT22;37240;50.104;20.010;2023-03-01T01:19:11;2.10;98.20
51175;DHT22;37240;50.104;20.010;2023-03-01T01:24:12;2.00;98.60
51175;DHT22;37240;50.104;20.010;2023-03-01T01:29:13;1.90;98.90
51175;DHT22;37240;50.104;20.010;2023-03-01T01:34:16;1.80;98.90
51175;DHT22;37240;50.104;20.010;2023-03-01T01:39:17;1.90;99.00
51175;DHT22;37240;50.104;20.010;2023-03-01T01:44:26;1.90;98.80
51175;DHT22;37240;50.104;20.010;2023-03-01T01:49:54;1.90;98.90
51175;DHT22;37240;50.104;20.010;2023-03-01T01:55:08;1.90;99.00
51175;DHT22;37240;50.104;20.010;2023-03-01T02:10:39;1.60;99.90
51175;DHT22;37240;50.104;20.010;2023-03-01T02:15:41;1.60;99.90
51175;DHT22;37240;50.104;20.010;2023-03-01T02:20:58;1.60;99.90
51175;DHT22;37240;50.104;20.010;2023-03-01T02:26:15;1.60;99.90
51175;DHT22;37240;50.104;20.010;2023-03-01T02:31:20;1.70;99.90
51175;DHT22;37240;50.104;20.010;2023-03-01T02:36:31;1.60;99.90
51175;DHT22;37240;50.104;20.010;2023-03-01T02:41:36;1.60;99.90
51175;DHT22;37240;50.104;20.010;2023-03-01T02:46:47;1.70;99.90
51175;DHT22;37240;50.104;20.010;2023-03-01T02:52:21;1.70;99.90
51175;DHT22;37240;50.104;20.010;2023-03-01T02:57:24;1.70;99.90
51175;DHT22;37240;50.104;20.010;2023-03-01T03:02:28;1.60;99.90
51175;DHT22;37240;50.104;20.010;2023-03-01T03:07:29;1.60;99.90
51175;DHT22;37240;50.104;20.010;2023-03-01T03:12:30;1.60;99.90
51175;DHT22;37240;50.104;20.010;2023-03-01T03:17:30;1.70;99.70
51175;DHT22;37240;50.104;20.010;2023-03-01T03:22:31;1.60;99.90
51175;DHT22;37240;50.104;20.010;2023-03-01T03:27:32;1.60;99.90
51175;DHT22;37240;50.104;20.010;2023-03-01T03:32:32;1.50;99.90
51175;DHT22;37240;50.104;20.010;2023-03-01T03:37:33;1.50;99.80
51175;DHT22;37240;50.104;20.010;2023-03-01T03:42:33;1.50;99.90
51175;DHT22;37240;50.104;20.010;2023-03-01T03:47:34;1.50;99.90
51175;DHT22;37240;50.104;20.010;2023-03-01T03:52:34;1.40;99.90
51175;DHT22;37240;50.104;20.010;2023-03-01T03:57:42;1.40;99.90
51175;DHT22;37240;50.104;20.010;2023-03-01T04:02:43;1.30;99.90
51175;DHT22;37240;50.104;20.010;2023-03-01T04:07:44;1.30;99.90
51175;DHT22;37240;50.104;20.010;2023-03-01T04:12:45;1.30;99.90
51175;DHT22;37240;50.104;20.010;2023-03-01T04:17:46;1.30;99.90
51175;DHT22;37240;50.104;20.010;2023-03-01T04:22:47;1.30;99.90
51175;DHT22;37240;50.104;20.010;2023-03-01T04:27:47;1.30;99.90
51175;DHT22;37240;50.104;20.010;2023-03-01T04:32:48;1.30;99.90
51175;DHT22;37240;50.104;20.010;2023-03-01T04:37:49;1.30;99.90
51175;DHT22;37240;50.104;20.010;2023-03-01T04:42:50;1.30;99.90
51175;DHT22;37240;50.104;20.010;2023-03-01T04:47:50;1.30;99.90
51175;DHT22;37240;50.104;20.010;2023-03-01T04:52:51;1.40;99.70
51175;DHT22;37240;50.104;20.010;2023-03-01T04:57:52;1.30;99.90
51175;DHT22;37240;50.104;20.010;2023-03-01T05:02:55;1.30;99.80
51175;DHT22;37240;50.104;20.010;2023-03-01T05:07:59;1.20;99.90
51175;DHT22;37240;50.104;20.010;2023-03-01T05:13:00;1.20;99.90
51175;DHT22;37240;50.104;20.010;2023-03-01T05:18:00;1.10;99.90
51175;DHT22;37240;50.104;20.010;2023-03-01T05:23:01;1.20;99.90
51175;DHT22;37240;50.104;20.010;2023-03-01T05:28:02;1.10;99.90
51175;DHT22;37240;50.104;20.010;2023-03-01T05:33:03;1.00;99.90
51175;DHT22;37240;50.104;20.010;2023-03-01T05:38:03;1.00;99.90
51175;DHT22;37240;50.104;20.010;2023-03-01T05:43:04;1.00;99.90
51175;DHT22;37240;50.104;20.010;2023-03-01T05:48:05;1.00;99.90
51175;DHT22;37240;50.104;20.010;2023-03-01T05:58:19;1.40;99.90
51175;DHT22;37240;50.104;20.010;2023-03-01T06:03:20;1.70;99.90
51175;DHT22;37240;50.104;20.010;2023-03-01T06:08:21;1.90;99.90
51175;DHT22;37240;50.104;20.010;2023-03-01T06:13:22;2.30;99.90
51175;DHT22;37240;50.104;20.010;2023-03-01T06:18:22;2.80;99.90
51175;DHT22;37240;50.104;20.010;2023-03-01T06:23:24;3.30;99.40
51175;DHT22;37240;50.104;20.010;2023-03-01T06:28:24;3.90;98.80
51175;DHT22;37240;50.104;20.010;2023-03-01T06:33:25;4.30;97.50
51175;DHT22;37240;50.104;20.010;2023-03-01T06:38:25;4.80;96.90
51175;DHT22;37240;50.104;20.010;2023-03-01T06:43:26;5.40;95.40
51175;DHT22;37240;50.104;20.010;2023-03-01T06:48:27;5.80;93.90
51175;DHT22;37240;50.104;20.010;2023-03-01T06:53:28;6.10;92.60
51175;DHT22;37240;50.104;20.010;2023-03-01T06:58:29;6.40;92.50
51175;DHT22;37240;50.104;20.010;2023-03-01T07:03:29;6.90;91.00
51175;DHT22;37240;50.104;20.010;2023-03-01T07:08:30;7.30;90.00
51175;DHT22;37240;50.104;20.010;2023-03-01T07:13:31;7.60;85.50
51175;DHT22;37240;50.104;20.010;2023-03-01T07:18:31;8.10;83.50
51175;DHT22;37240;50.104;20.010;2023-03-01T07:23:33;8.40;79.40
51175;DHT22;37240;50.104;20.010;2023-03-01T07:28:33;8.70;76.40
51175;DHT22;37240;50.104;20.010;2023-03-01T07:33:34;9.20;74.60
51175;DHT22;37240;50.104;20.010;2023-03-01T07:38:35;9.60;73.80
51175;DHT22;37240;50.104;20.010;2023-03-01T07:43:35;9.90;71.60
51175;DHT22;37240;50.104;20.010;2023-03-01T07:48:36;10.10;68.90
51175;DHT22;37240;50.104;20.010;2023-03-01T07:53:36;10.30;67.90
51175;DHT22;37240;50.104;20.010;2023-03-01T07:58:39;10.70;67.00
51175;DHT22;37240;50.104;20.010;2023-03-01T08:03:40;10.90;62.20
51175;DHT22;37240;50.104;20.010;2023-03-01T08:08:41;11.10;63.20
51175;DHT22;37240;50.104;20.010;2023-03-01T08:13:42;11.30;61.70
51175;DHT22;37240;50.104;20.010;2023-03-01T08:18:46;11.20;59.90
51175;DHT22;37240;50.104;20.010;2023-03-01T08:23:47;11.40;61.50
51175;DHT22;37240;50.104;20.010;2023-03-01T08:28:48;11.90;60.20
51175;DHT22;37240;50.104;20.010;2023-03-01T08:33:51;12.10;57.90
51175;DHT22;37240;50.104;20.010;2023-03-01T08:38:52;12.40;58.00
51175;DHT22;37240;50.104;20.010;2023-03-01T08:43:53;12.60;56.60
51175;DHT22;37240;50.104;20.010;2023-03-01T08:48:54;12.60;54.70
51175;DHT22;37240;50.104;20.010;2023-03-01T08:53:54;12.70;55.10
51175;DHT22;37240;50.104;20.010;2023-03-01T08:58:55;12.90;55.40
51175;DHT22;37240;50.104;20.010;2023-03-01T09:03:55;13.00;54.70
51175;DHT22;37240;50.104;20.010;2023-03-01T09:08:56;13.00;53.00
51175;DHT22;37240;50.104;20.010;2023-03-01T09:13:57;12.90;52.80
51175;DHT22;37240;50.104;20.010;2023-03-01T09:18:57;13.00;51.50
51175;DHT22;37240;50.104;20.010;2023-03-01T09:23:58;13.00;49.90
51175;DHT22;37240;50.104;20.010;2023-03-01T09:28:59;13.00;49.20
51175;DHT22;37240;50.104;20.010;2023-03-01T09:33:59;13.00;48.70
51175;DHT22;37240;50.104;20.010;2023-03-01T09:39:00;12.90;48.60
51175;DHT22;37240;50.104;20.010;2023-03-01T09:44:10;12.70;47.60
51175;DHT22;37240;50.104;20.010;2023-03-01T09:49:15;12.40;47.70
51175;DHT22;37240;50.104;20.010;2023-03-01T09:54:17;12.20;47.70
51175;DHT22;37240;50.104;20.010;2023-03-01T09:59:28;12.00;46.50
51175;DHT22;37240;50.104;20.010;2023-03-01T10:04:45;11.90;47.90
51175;DHT22;37240;50.104;20.010;2023-03-01T10:09:47;12.00;48.20
51175;DHT22;37240;50.104;20.010;2023-03-01T10:19:54;11.60;49.70
51175;DHT22;37240;50.104;20.010;2023-03-01T10:24:58;11.30;49.70
51175;DHT22;37240;50.104;20.010;2023-03-01T10:35:26;11.00;49.40
51175;DHT22;37240;50.104;20.010;2023-03-01T10:40:27;10.70;49.70
51175;DHT22;37240;50.104;20.010;2023-03-01T10:45:38;10.30;51.80
51175;DHT22;37240;50.104;20.010;2023-03-01T10:50:46;10.20;53.00
51175;DHT22;37240;50.104;20.010;2023-03-01T10:55:57;10.10;54.30
51175;DHT22;37240;50.104;20.010;2023-03-01T11:01:04;9.80;55.00
51175;DHT22;37240;50.104;20.010;2023-03-01T11:06:20;9.50;56.70
51175;DHT22;37240;50.104;20.010;2023-03-01T11:16:27;9.10;58.20
51175;DHT22;37240;50.104;20.010;2023-03-01T11:21:29;8.90;58.60
51175;DHT22;37240;50.104;20.010;2023-03-01T11:26:34;8.90;58.30
51175;DHT22;37240;50.104;20.010;2023-03-01T11:31:36;8.80;58.70
51175;DHT22;37240;50.104;20.010;2023-03-01T11:36:41;8.80;59.40
51175;DHT22;37240;50.104;20.010;2023-03-01T11:41:48;8.60;58.10
51175;DHT22;37240;50.104;20.010;2023-03-01T11:52:30;8.90;58.20
51175;DHT22;37240;50.104;20.010;2023-03-01T12:08:42;8.90;56.70
51175;DHT22;37240;50.104;20.010;2023-03-01T12:14:41;8.80;55.70
51175;DHT22;37240;50.104;20.010;2023-03-01T12:36:02;8.80;57.00
51175;DHT22;37240;50.104;20.010;2023-03-01T12:51:31;8.70;56.70
51175;DHT22;37240;50.104;20.010;2023-03-01T12:56:35;8.70;55.10
51175;DHT22;37240;50.104;20.010;2023-03-01T13:12:03;8.50;54.40
51175;DHT22;37240;50.104;20.010;2023-03-01T13:17:04;8.50;55.80
51175;DHT22;37240;50.104;20.010;2023-03-01T13:22:32;8.50;56.20
51175;DHT22;37240;50.104;20.010;2023-03-01T13:27:33;8.40;54.80
51175;DHT22;37240;50.104;20.010;2023-03-01T13:32:35;8.50;55.20
51175;DHT22;37240;50.104;20.010;2023-03-01T13:37:37;8.40;55.00
51175;DHT22;37240;50.104;20.010;2023-03-01T13:42:41;8.20;55.60
51175;DHT22;37240;50.104;20.010;2023-03-01T13:47:43;8.30;55.10
51175;DHT22;37240;50.104;20.010;2023-03-01T13:53:04;8.30;53.80
51175;DHT22;37240;50.104;20.010;2023-03-01T13:58:16;8.30;52.70
51175;DHT22;37240;50.104;20.010;2023-03-01T14:03:19;8.30;53.20
51175;DHT22;37240;50.104;20.010;2023-03-01T14:08:23;8.40;55.40
51175;DHT22;37240;50.104;20.010;2023-03-01T14:13:43;8.30;55.10
51175;DHT22;37240;50.104;20.010;2023-03-01T14:23:57;8.40;54.90
51175;DHT22;37240;50.104;20.010;2023-03-01T14:28:58;8.40;53.20
51175;DHT22;37240;50.104;20.010;2023-03-01T14:33:58;8.40;53.60
51175;DHT22;37240;50.104;20.010;2023-03-01T14:39:00;8.30;52.70
51175;DHT22;37240;50.104;20.010;2023-03-01T14:44:12;8.20;54.00
51175;DHT22;37240;50.104;20.010;2023-03-01T14:49:20;8.20;53.80
51175;DHT22;37240;50.104;20.010;2023-03-01T14:54:25;8.30;53.40
51175;DHT22;37240;50.104;20.010;2023-03-01T14:59:26;8.30;53.80
51175;DHT22;37240;50.104;20.010;2023-03-01T15:04:28;8.20;54.70
51175;DHT22;37240;50.104;20.010;2023-03-01T15:09:30;8.10;54.00
51175;DHT22;37240;50.104;20.010;2023-03-01T15:14:44;8.30;53.80
51175;DHT22;37240;50.104;20.010;2023-03-01T15:19:46;8.30;53.80
51175;DHT22;37240;50.104;20.010;2023-03-01T15:24:49;8.10;55.50
51175;DHT22;37240;50.104;20.010;2023-03-01T15:34:55;8.10;55.70
51175;DHT22;37240;50.104;20.010;2023-03-01T15:39:56;8.10;54.70
51175;DHT22;37240;50.104;20.010;2023-03-01T15:50:28;8.00;54.80
51175;DHT22;37240;50.104;20.010;2023-03-01T15:55:30;8.00;55.10
51175;DHT22;37240;50.104;20.010;2023-03-01T16:00:31;7.90;55.30
51175;DHT22;37240;50.104;20.010;2023-03-01T16:05:33;7.80;55.50
51175;DHT22;37240;50.104;20.010;2023-03-01T16:10:40;7.70;55.30
51175;DHT22;37240;50.104;20.010;2023-03-01T16:15:41;7.60;55.40
51175;DHT22;37240;50.104;20.010;2023-03-01T16:20:41;7.50;56.20
51175;DHT22;37240;50.104;20.010;2023-03-01T16:25:42;7.50;56.10
51175;DHT22;37240;50.104;20.010;2023-03-01T16:30:46;7.40;56.70
51175;DHT22;37240;50.104;20.010;2023-03-01T16:35:47;7.30;57.10
51175;DHT22;37240;50.104;20.010;2023-03-01T16:40:50;7.20;57.80
51175;DHT22;37240;50.104;20.010;2023-03-01T16:45:50;7.20;58.10
51175;DHT22;37240;50.104;20.010;2023-03-01T16:51:01;7.10;58.60
51175;DHT22;37240;50.104;20.010;2023-03-01T16:56:03;7.10;59.60
51175;DHT22;37240;50.104;20.010;2023-03-01T17:01:07;7.00;59.70
51175;DHT22;37240;50.104;20.010;2023-03-01T17:06:11;6.90;60.50
51175;DHT22;37240;50.104;20.010;2023-03-01T17:11:14;6.90;61.00
51175;DHT22;37240;50.104;20.010;2023-03-01T17:16:17;6.90;61.30
51175;DHT22;37240;50.104;20.010;2023-03-01T17:21:18;6.90;61.90
51175;DHT22;37240;50.104;20.010;2023-03-01T17:26:18;6.80;63.30
51175;DHT22;37240;50.104;20.010;2023-03-01T17:31:19;6.70;65.40
51175;DHT22;37240;50.104;20.010;2023-03-01T17:36:19;6.70;66.10
51175;DHT22;37240;50.104;20.010;2023-03-01T17:41:20;6.60;66.00
51175;DHT22;37240;50.104;20.010;2023-03-01T17:46:20;6.50;66.00
51175;DHT22;37240;50.104;20.010;2023-03-01T17:51:21;6.50;66.80
51175;DHT22;37240;50.104;20.010;2023-03-01T17:56:22;6.50;67.80
51175;DHT22;37240;50.104;20.010;2023-03-01T18:01:22;6.40;68.30
51175;DHT22;37240;50.104;20.010;2023-03-01T18:06:24;6.20;69.10
51175;DHT22;37240;50.104;20.010;2023-03-01T18:11:25;6.20;69.40
51175;DHT22;37240;50.104;20.010;2023-03-01T18:16:26;6.10;69.40
51175;DHT22;37240;50.104;20.010;2023-03-01T18:21:27;6.10;69.90
51175;DHT22;37240;50.104;20.010;2023-03-01T18:26:28;6.10;70.30
51175;DHT22;37240;50.104;20.010;2023-03-01T18:31:29;6.10;70.30
51175;DHT22;37240;50.104;20.010;2023-03-01T18:36:33;6.00;70.80
51175;DHT22;37240;50.104;20.010;2023-03-01T18:41:35;6.00;71.80
51175;DHT22;37240;50.104;20.010;2023-03-01T18:46:36;6.00;71.60
51175;DHT22;37240;50.104;20.010;2023-03-01T18:51:36;5.90;71.70
51175;DHT22;37240;50.104;20.010;2023-03-01T18:56:37;5.90;71.40
51175;DHT22;37240;50.104;20.010;2023-03-01T19:01:38;5.90;72.40
51175;DHT22;37240;50.104;20.010;2023-03-01T19:06:38;5.80;73.60
51175;DHT22;37240;50.104;20.010;2023-03-01T19:11:39;5.80;73.20
51175;DHT22;37240;50.104;20.010;2023-03-01T19:16:39;5.80;73.80
51175;DHT22;37240;50.104;20.010;2023-03-01T19:21:40;5.70;74.50
51175;DHT22;37240;50.104;20.010;2023-03-01T19:26:40;5.70;75.00
51175;DHT22;37240;50.104;20.010;2023-03-01T19:31:41;5.60;76.20
51175;DHT22;37240;50.104;20.010;2023-03-01T19:36:42;5.40;77.70
51175;DHT22;37240;50.104;20.010;2023-03-01T19:41:43;5.30;78.10
51175;DHT22;37240;50.104;20.010;2023-03-01T19:46:44;5.20;80.50
51175;DHT22;37240;50.104;20.010;2023-03-01T19:51:44;5.10;81.40
51175;DHT22;37240;50.104;20.010;2023-03-01T19:56:46;5.00;82.40
51175;DHT22;37240;50.104;20.010;2023-03-01T20:01:46;4.90;82.40
51175;DHT22;37240;50.104;20.010;2023-03-01T20:06:47;4.80;82.60
51175;DHT22;37240;50.104;20.010;2023-03-01T20:11:49;4.90;83.00
51175;DHT22;37240;50.104;20.010;2023-03-01T20:16:50;4.80;83.10
51175;DHT22;37240;50.104;20.010;2023-03-01T20:21:50;4.80;83.60
51175;DHT22;37240;50.104;20.010;2023-03-01T20:26:51;4.80;84.10
51175;DHT22;37240;50.104;20.010;2023-03-01T20:31:51;4.70;86.30
51175;DHT22;37240;50.104;20.010;2023-03-01T20:36:52;4.50;88.10
51175;DHT22;37240;50.104;20.010;2023-03-01T20:41:53;4.30;88.80
51175;DHT22;37240;50.104;20.010;2023-03-01T20:46:53;4.30;90.00
51175;DHT22;37240;50.104;20.010;2023-03-01T20:51:54;4.30;90.60
51175;DHT22;37240;50.104;20.010;2023-03-01T20:56:54;4.30;90.80
51175;DHT22;37240;50.104;20.010;2023-03-01T21:01:55;4.30;90.80
51175;DHT22;37240;50.104;20.010;2023-03-01T21:06:55;4.20;91.00
51175;DHT22;37240;50.104;20.010;2023-03-01T21:11:56;4.10;91.20
51175;DHT22;37240;50.104;20.010;2023-03-01T21:16:56;4.00;92.30
51175;DHT22;37240;50.104;20.010;2023-03-01T21:21:57;4.00;93.40
51175;DHT22;37240;50.104;20.010;2023-03-01T21:26:58;4.00;92.10
51175;DHT22;37240;50.104;20.010;2023-03-01T21:31:58;4.10;92.60
51175;DHT22;37240;50.104;20.010;2023-03-01T21:36:59;4.00;92.70
51175;DHT22;37240;50.104;20.010;2023-03-01T21:42:02;4.10;92.20
51175;DHT22;37240;50.104;20.010;2023-03-01T21:47:03;4.10;91.80
51175;DHT22;37240;50.104;20.010;2023-03-01T21:52:03;4.10;92.00
51175;DHT22;37240;50.104;20.010;2023-03-01T21:57:04;4.10;91.90
51175;DHT22;37240;50.104;20.010;2023-03-01T22:02:05;4.10;92.40
51175;DHT22;37240;50.104;20.010;2023-03-01T22:07:05;4.00;92.10
51175;DHT22;37240;50.104;20.010;2023-03-01T22:12:06;4.00;92.30
51175;DHT22;37240;50.104;20.010;2023-03-01T22:17:07;4.00;92.10
51175;DHT22;37240;50.104;20.010;2023-03-01T22:22:07;4.00;92.30
51175;DHT22;37240;50.104;20.010;2023-03-01T22:27:08;3.90;92.30
51175;DHT22;37240;50.104;20.010;2023-03-01T22:32:08;3.90;92.20
51175;DHT22;37240;50.104;20.010;2023-03-01T22:37:09;3.90;92.60
51175;DHT22;37240;50.104;20.010;2023-03-01T22:42:09;3.90;93.00
51175;DHT22;37240;50.104;20.010;2023-03-01T22:47:10;3.80;93.90
51175;DHT22;37240;50.104;20.010;2023-03-01T22:52:11;3.70;93.30
51175;DHT22;37240;50.104;20.010;2023-03-01T22:57:11;3.80;93.10
51175;DHT22;37240;50.104;20.010;2023-03-01T23:02:12;3.80;92.80
51175;DHT22;37240;50.104;20.010;2023-03-01T23:07:12;3.80;92.70
51175;DHT22;37240;50.104;20.010;2023-03-01T23:12:13;3.90;92.50
51175;DHT22;37240;50.104;20.010;2023-03-01T23:17:13;3.80;92.40
51175;DHT22;37240;50.104;20.010;2023-03-01T23:22:14;3.80;92.50
51175;DHT22;37240;50.104;20.010;2023-03-01T23:27:15;3.70;93.10
51175;DHT22;37240;50.104;20.010;2023-03-01T23:32:15;3.70;93.50
51175;DHT22;37240;50.104;20.010;2023-03-01T23:37:16;3.60;94.60
51175;DHT22;37240;50.104;20.010;2023-03-01T23:42:16;3.60;94.20
51175;DHT22;37240;50.104;20.010;2023-03-01T23:47:17;3.60;94.20
51175;DHT22;37240;50.104;20.010;2023-03-01T23:52:17;3.50;94.40
51175;DHT22;37240;50.104;20.010;2023-03-01T23:57:18;3.40;94.50
